Time,TemperatureF,DewpointF,PressureIn,WindDirection,WindDirectionDegrees,WindSpeedMPH,WindSpeedGustMPH,Humidity,HourlyPrecipIn,Conditions,Clouds,dailyrainin,SoftwareType,DateUTC
2013-05-25 00:02:00,43.0,-99.9,30.37,North,0,0.0,1.0,-999,-99.99,,,-99.99,,2013-05-25 05:02:00,
2013-05-25 00:12:00,43.0,-99.9,30.37,North,0,0.0,1.0,-999,-99.99,,,-99.99,,2013-05-25 05:12:00,
2013-05-25 00:22:00,43.0,-99.9,30.37,North,0,0.0,1.0,-999,-99.99,,,-99.99,,2013-05-25 05:22:00,
2013-05-25 00:32:00,43.0,-99.9,30.37,North,0,0.0,1.0,-999,-99.99,,,-99.99,,2013-05-25 05:32:00,
2013-05-25 00:40:00,42.0,-99.9,30.36,North,0,0.0,1.0,-999,-99.99,,,-99.99,,2013-05-25 05:40:00,
2013-05-25 01:02:00,42.0,-99.9,30.36,North,0,0.0,1.0,-999,-99.99,,,-99.99,,2013-05-25 06:02:00,
2013-05-25 01:12:00,42.0,-99.9,30.36,North,0,0.0,1.0,-999,-99.99,,,-99.99,,2013-05-25 06:12:00,
2013-05-25 01:22:00,42.0,-99.9,30.36,North,0,0.0,1.0,-999,-99.99,,,-99.99,,2013-05-25 06:22:00,
2013-05-25 01:33:00,42.0,-99.9,30.36,North,0,0.0,1.0,-999,-99.99,,,-99.99,,2013-05-25 06:33:00,
2013-05-25 01:40:00,42.0,-99.9,30.35,SSW,200,2.0,2.0,-999,-99.99,,,-99.99,,2013-05-25 06:40:00,
2013-05-25 02:02:00,42.0,-99.9,30.35,SSW,200,2.0,2.0,-999,-99.99,,,-99.99,,2013-05-25 07:02:00,
2013-05-25 02:11:00,42.0,-99.9,30.35,SSW,200,2.0,2.0,-999,-99.99,,,-99.99,,2013-05-25 07:11:00,
2013-05-25 02:22:00,42.0,-99.9,30.35,SSW,200,2.0,2.0,-999,-99.99,,,-99.99,,2013-05-25 07:22:00,
2013-05-25 02:32:00,42.0,-99.9,30.35,SSW,200,2.0,2.0,-999,-99.99,,,-99.99,,2013-05-25 07:32:00,
2013-05-25 02:40:00,41.0,-99.9,30.35,North,0,0.0,1.0,-999,-99.99,,,-99.99,,2013-05-25 07:40:00,
2013-05-25 03:02:00,41.0,-99.9,30.35,North,0,0.0,1.0,-999,-99.99,,,-99.99,,2013-05-25 08:02:00,
2013-05-25 03:11:00,41.0,-99.9,30.35,North,0,0.0,1.0,-999,-99.99,,,-99.99,,2013-05-25 08:11:00,
2013-05-25 03:23:00,41.0,-99.9,30.35,North,0,0.0,1.0,-999,-99.99,,,-99.99,,2013-05-25 08:23:00,
2013-05-25 03:32:00,41.0,-99.9,30.35,North,0,0.0,1.0,-999,-99.99,,,-99.99,,2013-05-25 08:32:00,
2013-05-25 03:40:00,42.0,-99.9,30.38,WNW,290,3.0,5.0,-999,-99.99,,,-99.99,,2013-05-25 08:40:00,
2013-05-25 04:02:00,42.0,-99.9,30.38,WNW,290,3.0,5.0,-999,-99.99,,,-99.99,,2013-05-25 09:02:00,
2013-05-25 04:12:00,42.0,-99.9,30.38,WNW,290,3.0,5.0,-999,-99.99,,,-99.99,,2013-05-25 09:12:00,
2013-05-25 04:22:00,42.0,-99.9,30.38,WNW,290,3.0,5.0,-999,-99.99,,,-99.99,,2013-05-25 09:22:00,
2013-05-25 04:33:00,42.0,-99.9,30.38,WNW,290,3.0,5.0,-999,-99.99,,,-99.99,,2013-05-25 09:33:00,
2013-05-25 04:40:00,43.0,-99.9,30.38,East,90,2.0,5.0,-999,-99.99,,,-99.99,,2013-05-25 09:40:00,
2013-05-25 05:03:00,43.0,-99.9,30.38,East,90,2.0,5.0,-999,-99.99,,,-99.99,,2013-05-25 10:03:00,
2013-05-25 05:13:00,43.0,-99.9,30.38,East,90,2.0,5.0,-999,-99.99,,,-99.99,,2013-05-25 10:13:00,
2013-05-25 05:23:00,43.0,-99.9,30.38,East,90,2.0,5.0,-999,-99.99,,,-99.99,,2013-05-25 10:23:00,
2013-05-25 05:33:00,43.0,-99.9,30.38,East,90,2.0,5.0,-999,-99.99,,,-99.99,,2013-05-25 10:33:00,
2013-05-25 05:40:00,45.0,-99.9,30.38,East,90,3.0,7.0,-999,-99.99,,,-99.99,,2013-05-25 10:40:00,
2013-05-25 06:03:00,45.0,-99.9,30.38,East,90,3.0,7.0,-999,-99.99,,,-99.99,,2013-05-25 11:03:00,
2013-05-25 06:12:00,45.0,-99.9,30.38,East,90,3.0,7.0,-999,-99.99,,,-99.99,,2013-05-25 11:12:00,
2013-05-25 06:22:00,45.0,-99.9,30.38,East,90,3.0,7.0,-999,-99.99,,,-99.99,,2013-05-25 11:22:00,
2013-05-25 06:32:00,45.0,-99.9,30.38,East,90,3.0,7.0,-999,-99.99,,,-99.99,,2013-05-25 11:32:00,
2013-05-25 06:40:00,46.0,-99.9,30.41,East,100,5.0,6.0,-999,-99.99,,,-99.99,,2013-05-25 11:40:00,
2013-05-25 07:02:00,46.0,-99.9,30.41,East,100,5.0,6.0,-999,-99.99,,,-99.99,,2013-05-25 12:02:00,
2013-05-25 07:12:00,46.0,-99.9,30.41,East,100,5.0,6.0,-999,-99.99,,,-99.99,,2013-05-25 12:12:00,
2013-05-25 07:22:00,46.0,-99.9,30.41,East,100,5.0,6.0,-999,-99.99,,,-99.99,,2013-05-25 12:22:00,
2013-05-25 07:32:00,46.0,-99.9,30.41,East,100,5.0,6.0,-999,-99.99,,,-99.99,,2013-05-25 12:32:00,
2013-05-25 07:40:00,47.0,-99.9,30.44,SSE,150,1.0,5.0,-999,-99.99,,,-99.99,,2013-05-25 12:40:00,
2013-05-25 08:02:00,47.0,-99.9,30.44,SSE,150,1.0,5.0,-999,-99.99,,,-99.99,,2013-05-25 13:02:00,
2013-05-25 08:11:00,47.0,-99.9,30.44,SSE,150,1.0,5.0,-999,-99.99,,,-99.99,,2013-05-25 13:11:00,
2013-05-25 08:22:00,47.0,-99.9,30.44,SSE,150,1.0,5.0,-999,-99.99,,,-99.99,,2013-05-25 13:22:00,
2013-05-25 08:32:00,47.0,-99.9,30.44,SSE,150,1.0,5.0,-999,-99.99,,,-99.99,,2013-05-25 13:32:00,
2013-05-25 08:40:00,48.0,-99.9,30.45,SE,130,3.0,3.0,-999,-99.99,,,-99.99,,2013-05-25 13:40:00,
2013-05-25 09:02:00,48.0,-99.9,30.45,SE,130,3.0,3.0,-999,-99.99,,,-99.99,,2013-05-25 14:02:00,
2013-05-25 09:11:00,48.0,-99.9,30.45,SE,130,3.0,3.0,-999,-99.99,,,-99.99,,2013-05-25 14:11:00,
2013-05-25 09:22:00,48.0,-99.9,30.45,SE,130,3.0,3.0,-999,-99.99,,,-99.99,,2013-05-25 14:22:00,
2013-05-25 09:32:00,48.0,-99.9,30.45,SE,130,3.0,3.0,-999,-99.99,,,-99.99,,2013-05-25 14:32:00,
2013-05-25 09:40:00,49.0,-99.9,30.43,SE,130,3.0,5.0,-999,-99.99,,,-99.99,,2013-05-25 14:40:00,
2013-05-25 10:02:00,49.0,-99.9,30.43,SE,130,3.0,5.0,-999,-99.99,,,-99.99,,2013-05-25 15:02:00,
2013-05-25 10:12:00,49.0,-99.9,30.43,SE,130,3.0,5.0,-999,-99.99,,,-99.99,,2013-05-25 15:12:00,
2013-05-25 10:22:00,49.0,-99.9,30.43,SE,130,3.0,5.0,-999,-99.99,,,-99.99,,2013-05-25 15:22:00,
2013-05-25 10:33:00,49.0,-99.9,30.43,SE,130,3.0,5.0,-999,-99.99,,,-99.99,,2013-05-25 15:33:00,
2013-05-25 10:40:00,47.0,-99.9,30.42,SE,130,6.0,8.0,-999,-99.99,,,-99.99,,2013-05-25 15:40:00,
2013-05-25 11:03:00,47.0,-99.9,30.42,SE,130,6.0,8.0,-999,-99.99,,,-99.99,,2013-05-25 16:03:00,
2013-05-25 11:12:00,47.0,-99.9,30.42,SE,130,6.0,8.0,-999,-99.99,,,-99.99,,2013-05-25 16:12:00,
2013-05-25 11:23:00,47.0,-99.9,30.42,SE,130,6.0,8.0,-999,-99.99,,,-99.99,,2013-05-25 16:23:00,
2013-05-25 11:33:00,47.0,-99.9,30.42,SE,130,6.0,8.0,-999,-99.99,,,-99.99,,2013-05-25 16:33:00,
2013-05-25 11:40:00,46.0,-99.9,30.42,SE,140,7.0,8.0,-999,-99.99,,,-99.99,,2013-05-25 16:40:00,
2013-05-25 12:03:00,46.0,-99.9,30.42,SE,140,7.0,8.0,-999,-99.99,,,-99.99,,2013-05-25 17:03:00,
2013-05-25 12:11:00,46.0,-99.9,30.42,SE,140,7.0,8.0,-999,-99.99,,,-99.99,,2013-05-25 17:11:00,
2013-05-25 12:22:00,46.0,-99.9,30.42,SE,140,7.0,8.0,-999,-99.99,,,-99.99,,2013-05-25 17:22:00,
2013-05-25 12:33:00,46.0,-99.9,30.42,SE,140,7.0,8.0,-999,-99.99,,,-99.99,,2013-05-25 17:33:00,
2013-05-25 12:40:00,45.0,-99.9,30.42,SE,130,7.0,8.0,-999,-99.99,,,-99.99,,2013-05-25 17:40:00,
2013-05-25 13:02:00,45.0,-99.9,30.42,SE,130,7.0,8.0,-999,-99.99,,,-99.99,,2013-05-25 18:02:00,
2013-05-25 13:12:00,45.0,-99.9,30.42,SE,130,7.0,8.0,-999,-99.99,,,-99.99,,2013-05-25 18:12:00,
2013-05-25 13:22:00,45.0,-99.9,30.42,SE,130,7.0,8.0,-999,-99.99,,,-99.99,,2013-05-25 18:22:00,
2013-05-25 13:32:00,45.0,-99.9,30.42,SE,130,7.0,8.0,-999,-99.99,,,-99.99,,2013-05-25 18:32:00,
2013-05-25 13:40:00,46.0,-99.9,30.42,SE,130,7.0,8.0,-999,-99.99,,,-99.99,,2013-05-25 18:40:00,
2013-05-25 14:02:00,46.0,-99.9,30.42,SE,130,7.0,8.0,-999,-99.99,,,-99.99,,2013-05-25 19:02:00,
2013-05-25 14:11:00,46.0,-99.9,30.42,SE,130,7.0,8.0,-999,-99.99,,,-99.99,,2013-05-25 19:11:00,
2013-05-25 14:22:00,46.0,-99.9,30.42,SE,130,7.0,8.0,-999,-99.99,,,-99.99,,2013-05-25 19:22:00,
2013-05-25 14:32:00,46.0,-99.9,30.42,SE,130,7.0,8.0,-999,-99.99,,,-99.99,,2013-05-25 19:32:00,
2013-05-25 14:40:00,46.0,-99.9,30.39,SE,130,6.0,7.0,-999,-99.99,,,-99.99,,2013-05-25 19:40:00,
2013-05-25 15:02:00,46.0,-99.9,30.39,SE,130,6.0,7.0,-999,-99.99,,,-99.99,,2013-05-25 20:02:00,
2013-05-25 15:11:00,46.0,-99.9,30.39,SE,130,6.0,7.0,-999,-99.99,,,-99.99,,2013-05-25 20:11:00,
2013-05-25 15:22:00,46.0,-99.9,30.39,SE,130,6.0,7.0,-999,-99.99,,,-99.99,,2013-05-25 20:22:00,
2013-05-25 15:32:00,46.0,-99.9,30.39,SE,130,6.0,7.0,-999,-99.99,,,-99.99,,2013-05-25 20:32:00,
2013-05-25 15:40:00,47.0,-99.9,30.38,SE,140,5.0,6.0,-999,-99.99,,,-99.99,,2013-05-25 20:40:00,
2013-05-25 16:02:00,47.0,-99.9,30.38,SE,140,5.0,6.0,-999,-99.99,,,-99.99,,2013-05-25 21:02:00,
2013-05-25 16:11:00,47.0,-99.9,30.38,SE,140,5.0,6.0,-999,-99.99,,,-99.99,,2013-05-25 21:11:00,
2013-05-25 16:22:00,47.0,-99.9,30.38,SE,140,5.0,6.0,-999,-99.99,,,-99.99,,2013-05-25 21:22:00,
2013-05-25 16:33:00,47.0,-99.9,30.38,SE,140,5.0,6.0,-999,-99.99,,,-99.99,,2013-05-25 21:33:00,
2013-05-25 16:40:00,50.0,-99.9,30.37,SE,130,5.0,5.0,-999,-99.99,,,-99.99,,2013-05-25 21:40:00,
2013-05-25 17:03:00,50.0,-99.9,30.37,SE,130,5.0,5.0,-999,-99.99,,,-99.99,,2013-05-25 22:03:00,
2013-05-25 17:13:00,50.0,-99.9,30.37,SE,130,5.0,5.0,-999,-99.99,,,-99.99,,2013-05-25 22:13:00,
2013-05-25 17:23:00,50.0,-99.9,30.37,SE,130,5.0,5.0,-999,-99.99,,,-99.99,,2013-05-25 22:23:00,
2013-05-25 17:33:00,50.0,-99.9,30.37,SE,130,5.0,5.0,-999,-99.99,,,-99.99,,2013-05-25 22:33:00,
2013-05-25 17:40:00,51.0,-99.9,30.36,ESE,120,5.0,6.0,-999,-99.99,,,-99.99,,2013-05-25 22:40:00,
2013-05-25 18:02:00,51.0,-99.9,30.36,ESE,120,5.0,6.0,-999,-99.99,,,-99.99,,2013-05-25 23:02:00,
2013-05-25 18:12:00,51.0,-99.9,30.36,ESE,120,5.0,6.0,-999,-99.99,,,-99.99,,2013-05-25 23:12:00,
2013-05-25 18:22:00,51.0,-99.9,30.36,ESE,120,5.0,6.0,-999,-99.99,,,-99.99,,2013-05-25 23:22:00,
2013-05-25 18:32:00,51.0,-99.9,30.36,ESE,120,5.0,6.0,-999,-99.99,,,-99.99,,2013-05-25 23:32:00,
2013-05-25 18:40:00,52.0,-99.9,30.33,SE,130,5.0,5.0,-999,-99.99,,,-99.99,,2013-05-25 23:40:00,
2013-05-25 19:02:00,52.0,-99.9,30.33,SE,130,5.0,5.0,-999,-99.99,,,-99.99,,2013-05-26 00:02:00,
2013-05-25 19:12:00,52.0,-99.9,30.33,SE,130,5.0,5.0,-999,-99.99,,,-99.99,,2013-05-26 00:12:00,
2013-05-25 19:22:00,52.0,-99.9,30.33,SE,130,5.0,5.0,-999,-99.99,,,-99.99,,2013-05-26 00:22:00,
2013-05-25 19:32:00,52.0,-99.9,30.33,SE,130,5.0,5.0,-999,-99.99,,,-99.99,,2013-05-26 00:32:00,
2013-05-25 19:40:00,56.0,-99.9,30.32,South,180,2.0,3.0,-999,-99.99,,,-99.99,,2013-05-26 00:40:00,
2013-05-25 20:01:00,56.0,-99.9,30.32,South,180,2.0,3.0,-999,-99.99,,,-99.99,,2013-05-26 01:01:00,
2013-05-25 20:11:00,56.0,-99.9,30.32,South,180,2.0,3.0,-999,-99.99,,,-99.99,,2013-05-26 01:11:00,
2013-05-25 20:21:00,56.0,-99.9,30.32,South,180,2.0,3.0,-999,-99.99,,,-99.99,,2013-05-26 01:21:00,
2013-05-25 20:32:00,56.0,-99.9,30.32,South,180,2.0,3.0,-999,-99.99,,,-99.99,,2013-05-26 01:32:00,
2013-05-25 20:40:00,49.0,-99.9,30.32,North,0,0.0,1.0,-999,-99.99,,,-99.99,,2013-05-26 01:40:00,
2013-05-25 21:02:00,49.0,-99.9,30.32,North,0,0.0,1.0,-999,-99.99,,,-99.99,,2013-05-26 02:02:00,
2013-05-25 21:11:00,49.0,-99.9,30.32,North,0,0.0,1.0,-999,-99.99,,,-99.99,,2013-05-26 02:11:00,
2013-05-25 21:22:00,49.0,-99.9,30.32,North,0,0.0,1.0,-999,-99.99,,,-99.99,,2013-05-26 02:22:00,
2013-05-25 21:32:00,49.0,-99.9,30.32,North,0,0.0,1.0,-999,-99.99,,,-99.99,,2013-05-26 02:32:00,
2013-05-25 21:40:00,47.0,-99.9,30.33,WNW,300,1.0,2.0,-999,-99.99,,,-99.99,,2013-05-26 02:40:00,
2013-05-25 22:01:00,47.0,-99.9,30.33,WNW,300,1.0,2.0,-999,-99.99,,,-99.99,,2013-05-26 03:01:00,
2013-05-25 22:11:00,47.0,-99.9,30.33,WNW,300,1.0,2.0,-999,-99.99,,,-99.99,,2013-05-26 03:11:00,
2013-05-25 22:22:00,47.0,-99.9,30.33,WNW,300,1.0,2.0,-999,-99.99,,,-99.99,,2013-05-26 03:22:00,
2013-05-25 22:33:00,47.0,-99.9,30.33,WNW,300,1.0,2.0,-999,-99.99,,,-99.99,,2013-05-26 03:33:00,
2013-05-25 22:40:00,47.0,-99.9,30.33,WNW,300,1.0,2.0,-999,-99.99,,,-99.99,,2013-05-26 03:40:00,
2013-05-25 23:03:00,47.0,-99.9,30.33,WNW,300,1.0,2.0,-999,-99.99,,,-99.99,,2013-05-26 04:03:00,
2013-05-25 23:13:00,47.0,-99.9,30.33,WNW,300,1.0,2.0,-999,-99.99,,,-99.99,,2013-05-26 04:13:00,
2013-05-25 23:23:00,47.0,-99.9,30.33,WNW,300,1.0,2.0,-999,-99.99,,,-99.99,,2013-05-26 04:23:00,
2013-05-25 23:33:00,47.0,-99.9,30.33,WNW,300,1.0,2.0,-999,-99.99,,,-99.99,,2013-05-26 04:33:00,
2013-05-25 23:40:00,48.0,-99.9,30.34,WNW,290,2.0,3.0,-999,-99.99,,,-99.99,,2013-05-26 04:40:00,